Terminal Aerodrome Forecast
Issued by NWS Pocatello, ID

Home | Current Version | Previous Version | Text Only | Print | Product List | Glossary On
Versions: 1 2 3 4 5 6 7 8 9 10 11 12 13 14 15 16 17 18 19 20 21 22 23 24 25 26
609
FTUS45 KPIH 111330 AAA
TAFBYI
TAF AMD
KBYI 111330Z 1114/1212 26012KT P6SM FEW004 SCT015
     FM111800 25010KT P6SM SCT040
     FM120300 24012KT P6SM SCT020 BKN040=

USA.gov is the U.S. government's official web portal to all federal, state and local government web resources and services.